createdAt,value
2023-04-04T00:00:29.006Z,98907.78
2023-04-04T00:02:55.865Z,98897.16
2023-04-04T00:05:23.056Z,98895.34
2023-04-04T00:07:49.933Z,98891.03
2023-04-04T00:10:17.123Z,98886.47
2023-04-04T00:12:44.208Z,98897.97
2023-04-04T00:15:11.753Z,98895.22
2023-04-04T00:17:38.970Z,98923.78
2023-04-04T00:20:06.617Z,98922.72
2023-04-04T00:22:33.268Z,98935.34
2023-04-04T00:25:00.331Z,98953.31
2023-04-04T00:27:27.148Z,98956.81
2023-04-04T00:29:53.867Z,98965.72
2023-04-04T00:32:21.238Z,98965.53
2023-04-04T00:34:53.305Z,98959.19
2023-04-04T00:37:20.285Z,98953.31
2023-04-04T00:39:48.187Z,98955.09
2023-04-04T00:42:14.898Z,98940.50
2023-04-04T00:44:41.737Z,98943.69
2023-04-04T00:47:08.690Z,98933.84
2023-04-04T00:49:35.737Z,98923.19
2023-04-04T00:52:02.527Z,98907.22
2023-04-04T00:54:30.672Z,98904.75
2023-04-04T00:56:58.350Z,98910.78
2023-04-04T00:59:27.929Z,98901.47
2023-04-04T01:01:55.032Z,98892.59
2023-04-04T01:04:22.134Z,98882.00
2023-04-04T01:06:50.096Z,98896.38
2023-04-04T01:09:17.137Z,98889.25
2023-04-04T01:11:44.670Z,98879.81
2023-04-04T01:14:11.641Z,98879.03
2023-04-04T01:16:39.825Z,98886.38
2023-04-04T01:19:11.681Z,98896.94
2023-04-04T01:21:39.503Z,98894.41
2023-04-04T01:24:08.729Z,98891.03
2023-04-04T01:26:44.122Z,98887.47
2023-04-04T01:29:11.266Z,98892.19
2023-04-04T01:31:51.313Z,98895.59
2023-04-04T01:34:32.133Z,98908.38
2023-04-04T01:37:36.257Z,98895.75
2023-04-04T01:40:22.094Z,98887.31
2023-04-04T01:42:52.166Z,98881.59
2023-04-04T01:45:23.152Z,98879.19
2023-04-04T01:47:51.052Z,98885.72
2023-04-04T01:50:22.060Z,98874.47
2023-04-04T01:52:50.171Z,98879.22
2023-04-04T01:55:17.096Z,98886.09
2023-04-04T01:57:43.904Z,98874.91
2023-04-04T02:00:11.382Z,98871.72
2023-04-04T02:02:43.933Z,98862.47
2023-04-04T02:05:11.586Z,98864.47
2023-04-04T02:07:38.747Z,98858.97
2023-04-04T02:10:12.997Z,98865.78
2023-04-04T02:12:40.187Z,98859.94
2023-04-04T02:15:07.416Z,98864.41
2023-04-04T02:17:35.805Z,98861.69
2023-04-04T02:20:03.980Z,98864.63
2023-04-04T02:22:30.775Z,98857.88
2023-04-04T02:24:57.984Z,98852.41
2023-04-04T02:27:24.713Z,98855.09
2023-04-04T02:29:51.440Z,98870.44
2023-04-04T02:32:18.557Z,98873.03
2023-04-04T02:34:46.031Z,98870.50
2023-04-04T02:37:13.301Z,98868.31
2023-04-04T02:39:40.502Z,98862.16
2023-04-04T02:42:07.165Z,98851.28
2023-04-04T02:44:33.850Z,98848.22
2023-04-04T02:47:00.648Z,98843.69
2023-04-04T02:49:30.171Z,98848.81
2023-04-04T02:51:57.939Z,98840.84
2023-04-04T02:54:28.443Z,98828.50
2023-04-04T02:56:55.987Z,98836.50
2023-04-04T02:59:22.697Z,98826.69
2023-04-04T03:01:49.622Z,98825.22
2023-04-04T03:04:16.485Z,98816.94
2023-04-04T03:06:43.558Z,98812.84
2023-04-04T03:09:10.948Z,98816.91
2023-04-04T03:11:37.668Z,98807.53
2023-04-04T03:14:04.525Z,98811.91
2023-04-04T03:16:40.236Z,98818.03
2023-04-04T03:19:07.692Z,98828.66
2023-04-04T03:21:34.394Z,98812.84
2023-04-04T03:24:01.187Z,98815.47
2023-04-04T03:26:29.523Z,98824.81
2023-04-04T03:28:56.316Z,98801.97
2023-04-04T03:31:24.900Z,98792.81
2023-04-04T03:33:51.957Z,98798.69
2023-04-04T03:36:18.693Z,98785.50
2023-04-04T03:38:48.933Z,98787.03
2023-04-04T03:41:15.782Z,98776.09
2023-04-04T03:43:42.456Z,98766.41
2023-04-04T03:46:09.238Z,98755.38
2023-04-04T03:48:36.310Z,98756.53
2023-04-04T03:51:07.044Z,98753.00
2023-04-04T03:53:35.875Z,98751.34
2023-04-04T03:56:02.769Z,98753.03
2023-04-04T03:58:30.405Z,98758.50
2023-04-04T04:00:57.237Z,98757.31
2023-04-04T04:03:27.230Z,98740.44
2023-04-04T04:05:54.132Z,98753.00
2023-04-04T04:08:21.972Z,98756.53
2023-04-04T04:10:49.808Z,98758.16
2023-04-04T04:13:16.741Z,98747.44
2023-04-04T04:15:43.730Z,98751.06
2023-04-04T04:18:17.014Z,98741.59
2023-04-04T04:20:43.914Z,98753.03
2023-04-04T04:23:10.762Z,98741.41
2023-04-04T04:25:37.884Z,98755.75
2023-04-04T04:28:14.422Z,98755.47
2023-04-04T04:30:41.731Z,98758.97
2023-04-04T04:33:09.136Z,98755.03
2023-04-04T04:35:44.928Z,98761.75
2023-04-04T04:38:11.795Z,98766.72
2023-04-04T04:40:40.387Z,98754.50
2023-04-04T04:43:19.596Z,98754.63
2023-04-04T04:45:48.677Z,98768.56
2023-04-04T04:48:19.805Z,98764.16
2023-04-04T04:50:51.502Z,98744.31
2023-04-04T04:53:28.849Z,98739.94
2023-04-04T04:55:55.622Z,98734.94
2023-04-04T04:58:24.739Z,98730.28
2023-04-04T05:00:58.002Z,98746.09
2023-04-04T05:03:31.510Z,98733.47
2023-04-04T05:05:58.537Z,98730.91
2023-04-04T05:08:25.387Z,98731.53
2023-04-04T05:11:03.235Z,98733.47
2023-04-04T05:13:31.969Z,98721.91
2023-04-04T05:15:59.547Z,98721.91
2023-04-04T05:18:27.658Z,98721.97
2023-04-04T05:20:55.742Z,98728.00
2023-04-04T05:23:25.161Z,98739.09
2023-04-04T05:25:53.639Z,98744.47
2023-04-04T05:28:23.853Z,98730.63
2023-04-04T05:30:53.683Z,98739.81
2023-04-04T05:33:24.496Z,98745.19
2023-04-04T05:36:01.648Z,98750.41
2023-04-04T05:38:31.645Z,98751.72
2023-04-04T05:40:58.392Z,98754.69
2023-04-04T05:43:25.890Z,98748.41
2023-04-04T05:45:59.108Z,98746.63
2023-04-04T05:48:27.762Z,98742.25
2023-04-04T05:50:54.434Z,98739.03
2023-04-04T05:53:32.893Z,98759.53
2023-04-04T05:56:01.222Z,98771.84
2023-04-04T05:58:31.021Z,98756.56
2023-04-04T06:00:59.076Z,98763.06
2023-04-04T06:03:26.030Z,98777.25
2023-04-04T06:05:53.452Z,98786.34
2023-04-04T06:08:20.567Z,98782.47
2023-04-04T06:10:47.290Z,98788.56
2023-04-04T06:13:14.025Z,98787.41
2023-04-04T06:15:43.723Z,98799.03
2023-04-04T06:18:11.715Z,98811.88
2023-04-04T06:20:38.683Z,98827.03
2023-04-04T06:23:05.936Z,98833.16
2023-04-04T06:25:37.358Z,98838.47
2023-04-04T06:28:04.531Z,98859.59
2023-04-04T06:30:35.780Z,98877.69
2023-04-04T06:33:03.784Z,98887.94
2023-04-04T06:35:31.057Z,98885.75
2023-04-04T06:37:59.762Z,98905.22
2023-04-04T06:40:27.187Z,98902.50
2023-04-04T06:42:58.083Z,98908.63
2023-04-04T06:45:29.756Z,98935.38
2023-04-04T06:47:56.762Z,98933.78
2023-04-04T06:50:23.584Z,98958.63
2023-04-04T06:52:50.786Z,98952.19
2023-04-04T06:55:18.502Z,98967.06
2023-04-04T06:57:45.171Z,98983.03
2023-04-04T07:00:12.632Z,98992.78
2023-04-04T07:02:39.437Z,99008.41
2023-04-04T07:05:06.901Z,99006.94
2023-04-04T07:07:33.694Z,99022.22
2023-04-04T07:10:00.664Z,99019.22
2023-04-04T07:12:27.508Z,99030.59
2023-04-04T07:14:54.178Z,99030.56
2023-04-04T07:17:24.589Z,99037.13
2023-04-04T07:19:52.156Z,99033.97
2023-04-04T07:22:19.196Z,99037.91
2023-04-04T07:24:46.010Z,99038.66
2023-04-04T07:27:15.513Z,99044.44
2023-04-04T07:29:42.688Z,99060.41
2023-04-04T07:32:09.535Z,99050.09
2023-04-04T07:34:36.515Z,99069.84
2023-04-04T07:37:03.282Z,99049.91
2023-04-04T07:39:29.994Z,99059.44
2023-04-04T07:41:56.739Z,99053.19
2023-04-04T07:44:23.470Z,99060.19
2023-04-04T07:47:02.357Z,99062.44
2023-04-04T07:49:33.680Z,99075.81
2023-04-04T07:52:00.353Z,99072.84
2023-04-04T07:54:27.482Z,99072.59
2023-04-04T07:56:54.230Z,99075.28
2023-04-04T07:59:20.947Z,99079.47
2023-04-04T08:01:47.599Z,99084.19
2023-04-04T08:04:14.365Z,99095.91
2023-04-04T08:06:41.392Z,99093.19
2023-04-04T08:09:08.212Z,99090.91
2023-04-04T08:11:35.473Z,99102.78
2023-04-04T08:14:02.299Z,99087.59
2023-04-04T08:16:29.030Z,99088.22
2023-04-04T08:18:56.511Z,99075.50
2023-04-04T08:21:24.071Z,99093.19
2023-04-04T08:23:50.731Z,99083.41
2023-04-04T08:26:17.587Z,99083.69
2023-04-04T08:28:45.626Z,99082.47
2023-04-04T08:31:12.633Z,99084.38
2023-04-04T08:33:47.134Z,99089.25
2023-04-04T08:36:14.820Z,99088.03
2023-04-04T08:38:41.593Z,99077.09
2023-04-04T08:41:08.925Z,99077.31
2023-04-04T08:43:38.619Z,99069.41
2023-04-04T08:46:06.125Z,99079.03
2023-04-04T08:48:34.002Z,99074.06
2023-04-04T08:51:02.021Z,99073.75
2023-04-04T08:53:29.631Z,99075.66
2023-04-04T08:55:58.559Z,99080.56
2023-04-04T08:58:25.315Z,99083.81
2023-04-04T09:00:56.239Z,99080.56
2023-04-04T09:03:28.427Z,99078.56
2023-04-04T09:05:55.791Z,99064.00
2023-04-04T09:08:25.006Z,99072.81
2023-04-04T09:10:52.634Z,99086.84
2023-04-04T09:13:19.794Z,99072.81
2023-04-04T09:15:52.673Z,99079.78
2023-04-04T09:18:19.357Z,99065.66
2023-04-04T09:20:47.735Z,99082.28
2023-04-04T09:23:20.834Z,99082.16
2023-04-04T09:28:21.766Z,99076.09
2023-04-04T09:30:49.779Z,99082.88
2023-04-04T09:33:17.711Z,99076.94
2023-04-04T09:35:52.711Z,99076.34
2023-04-04T09:38:23.262Z,99064.59
2023-04-04T09:40:50.340Z,99079.28
2023-04-04T09:43:18.257Z,99068.84
2023-04-04T09:45:46.486Z,99064.22
2023-04-04T09:48:13.875Z,99075.97
2023-04-04T09:50:47.105Z,99074.66
2023-04-04T09:53:18.684Z,99072.16
2023-04-04T09:55:53.978Z,99074.66
2023-04-04T09:58:28.460Z,99071.44
2023-04-04T10:01:02.988Z,99065.78
2023-04-04T10:03:30.730Z,99061.81
2023-04-04T10:06:06.919Z,99056.09
2023-04-04T10:08:35.239Z,99060.91
2023-04-04T10:11:10.522Z,99061.81
2023-04-04T10:13:44.744Z,99063.22
2023-04-04T10:16:12.213Z,99062.50
2023-04-04T10:18:39.866Z,99068.19
2023-04-04T10:23:39.107Z,99066.59
2023-04-04T10:26:06.314Z,99062.22
2023-04-04T10:28:34.680Z,99059.03
2023-04-04T10:31:17.553Z,99058.22
2023-04-04T10:34:04.828Z,99058.69
2023-04-04T10:36:43.739Z,99061.13
2023-04-04T10:39:48.264Z,99061.41
2023-04-04T10:42:18.574Z,99065.63
2023-04-04T10:44:46.254Z,99069.03
2023-04-04T10:47:23.481Z,99060.41
2023-04-04T10:49:51.469Z,99062.97
2023-04-04T10:52:24.205Z,99049.28
2023-04-04T10:54:54.758Z,99053.34
2023-04-04T10:57:22.413Z,99056.53
2023-04-04T11:00:01.408Z,99054.69
2023-04-04T11:02:46.821Z,99050.53
2023-04-04T11:05:21.029Z,99046.88
2023-04-04T11:08:04.481Z,99041.94
2023-04-04T11:10:53.678Z,99033.81
2023-04-04T11:13:26.369Z,99028.13
2023-04-04T11:16:05.474Z,99033.50
2023-04-04T11:18:34.048Z,99027.25
2023-04-04T11:21:05.743Z,99023.09
2023-04-04T11:23:47.760Z,99008.81
2023-04-04T11:26:18.991Z,99016.75
2023-04-04T11:28:47.311Z,99020.13
2023-04-04T11:31:20.778Z,99012.81
2023-04-04T11:34:09.779Z,99017.94
2023-04-04T11:36:36.679Z,99017.22
2023-04-04T11:39:08.319Z,99019.56
2023-04-04T11:41:59.874Z,99015.81
2023-04-04T11:44:29.712Z,99011.81
2023-04-04T11:47:01.089Z,99007.59
2023-04-04T11:49:29.900Z,99006.28
2023-04-04T11:51:57.511Z,98994.13
2023-04-04T11:54:24.594Z,98997.91
2023-04-04T11:56:51.629Z,98993.06
2023-04-04T11:59:21.612Z,98993.81
2023-04-04T12:01:52.394Z,98997.19
2023-04-04T12:04:20.404Z,98989.38
2023-04-04T12:06:51.639Z,98987.94
2023-04-04T12:09:20.507Z,98994.53
2023-04-04T12:11:48.122Z,98972.19
2023-04-04T12:14:26.075Z,98983.34
2023-04-04T12:16:57.682Z,98976.28
2023-04-04T12:19:24.854Z,98965.56
2023-04-04T12:21:53.675Z,98970.47
2023-04-04T12:24:20.955Z,98962.69
2023-04-04T12:26:51.234Z,98970.25
2023-04-04T12:29:20.824Z,98962.97
2023-04-04T12:31:48.863Z,98969.81
2023-04-04T12:37:16.438Z,98963.53
2023-04-04T12:39:51.238Z,98957.22
2023-04-04T12:42:25.372Z,98951.06
2023-04-04T12:44:54.158Z,98948.91
2023-04-04T12:47:24.308Z,98946.84
2023-04-04T12:49:55.084Z,98954.28
2023-04-04T12:52:26.702Z,98948.09
2023-04-04T12:55:06.700Z,98940.16
2023-04-04T12:57:36.136Z,98956.97
2023-04-04T13:00:06.758Z,98945.19
2023-04-04T13:02:36.328Z,98949.09
2023-04-04T13:05:04.083Z,98940.19
2023-04-04T13:07:43.524Z,98938.63
2023-04-04T13:10:15.143Z,98932.31
2023-04-04T13:13:00.210Z,98931.00
2023-04-04T13:15:50.844Z,98928.47
2023-04-04T13:18:23.944Z,98925.91
2023-04-04T13:20:52.474Z,98926.13
2023-04-04T13:23:20.625Z,98931.50
2023-04-04T13:25:47.703Z,98920.59
2023-04-04T13:28:14.594Z,98906.84
2023-04-04T13:30:46.912Z,98914.47
2023-04-04T13:33:13.754Z,98912.97
2023-04-04T13:35:42.939Z,98895.97
2023-04-04T13:38:10.289Z,98891.91
2023-04-04T13:40:37.144Z,98892.00
2023-04-04T13:43:04.013Z,98884.25
2023-04-04T13:45:34.932Z,98881.09
2023-04-04T13:48:02.576Z,98871.94
2023-04-04T13:50:31.972Z,98881.13
2023-04-04T13:52:59.268Z,98877.72
2023-04-04T13:55:27.528Z,98874.59
2023-04-04T13:57:54.398Z,98868.31
2023-04-04T14:00:21.648Z,98859.50
2023-04-04T14:02:53.660Z,98860.84
2023-04-04T14:05:22.585Z,98862.34
2023-04-04T14:07:49.423Z,98866.28
2023-04-04T14:10:17.228Z,98853.41
2023-04-04T14:12:44.019Z,98857.97
2023-04-04T14:15:12.330Z,98850.88
2023-04-04T14:17:39.008Z,98849.84
2023-04-04T14:20:06.994Z,98847.59
2023-04-04T14:22:34.298Z,98845.53
2023-04-04T14:25:01.443Z,98839.31
2023-04-04T14:27:28.147Z,98843.72
2023-04-04T14:29:54.891Z,98832.00
2023-04-04T14:32:21.703Z,98826.34
2023-04-04T14:34:48.409Z,98835.03
2023-04-04T14:37:15.059Z,98831.13
2023-04-04T14:39:41.791Z,98832.31
2023-04-04T14:42:08.818Z,98830.03
2023-04-04T14:44:35.651Z,98827.94
2023-04-04T14:47:02.337Z,98833.69
2023-04-04T14:49:29.055Z,98830.88
2023-04-04T14:51:55.901Z,98827.13
2023-04-04T14:54:22.578Z,98818.28
2023-04-04T14:56:49.260Z,98817.69
2023-04-04T14:59:16.606Z,98822.97
2023-04-04T15:01:43.612Z,98809.56
2023-04-04T15:04:11.737Z,98806.66
2023-04-04T15:06:39.491Z,98803.81
2023-04-04T15:09:06.737Z,98807.31
2023-04-04T15:11:35.567Z,98804.44
2023-04-04T15:14:02.453Z,98805.19
2023-04-04T15:16:33.533Z,98804.47
2023-04-04T15:19:01.103Z,98799.72
2023-04-04T15:21:28.723Z,98803.47
2023-04-04T15:23:55.950Z,98795.41
2023-04-04T15:26:23.039Z,98790.72
2023-04-04T15:28:49.865Z,98799.16
2023-04-04T15:31:17.155Z,98794.16
2023-04-04T15:33:43.987Z,98796.81
2023-04-04T15:36:10.818Z,98791.72
2023-04-04T15:38:37.486Z,98802.56
2023-04-04T15:41:10.623Z,98793.69
2023-04-04T15:43:37.526Z,98786.97
2023-04-04T15:46:04.775Z,98793.66
2023-04-04T15:48:31.632Z,98790.38
2023-04-04T15:51:02.492Z,98791.44
2023-04-04T15:53:33.650Z,98793.53
2023-04-04T15:56:02.144Z,98787.47
2023-04-04T15:58:28.835Z,98792.84
2023-04-04T16:00:56.193Z,98787.91
2023-04-04T16:03:25.857Z,98785.03
2023-04-04T16:05:52.793Z,98775.69
2023-04-04T16:08:19.639Z,98778.06
2023-04-04T16:10:46.354Z,98770.50
2023-04-04T16:13:14.102Z,98764.78
2023-04-04T16:15:41.183Z,98770.00
2023-04-04T16:18:08.989Z,98764.25
2023-04-04T16:20:36.278Z,98758.50
2023-04-04T16:23:03.102Z,98756.78
2023-04-04T16:25:29.816Z,98756.75
2023-04-04T16:27:56.588Z,98763.41
2023-04-04T16:30:23.311Z,98755.03
2023-04-04T16:32:51.056Z,98754.38
2023-04-04T16:35:18.020Z,98756.09
2023-04-04T16:37:44.849Z,98748.34
2023-04-04T16:40:13.948Z,98747.47
2023-04-04T16:42:41.721Z,98746.69
2023-04-04T16:45:09.455Z,98742.09
2023-04-04T16:47:36.771Z,98746.66
2023-04-04T16:50:07.493Z,98741.28
2023-04-04T16:52:34.224Z,98740.28
2023-04-04T16:55:00.955Z,98735.22
2023-04-04T16:57:27.780Z,98744.81
2023-04-04T16:59:54.785Z,98736.09
2023-04-04T17:02:21.462Z,98737.22
2023-04-04T17:04:48.197Z,98735.53
2023-04-04T17:07:15.024Z,98735.44
2023-04-04T17:09:41.722Z,98730.75
2023-04-04T17:12:08.525Z,98731.00
2023-04-04T17:14:35.820Z,98730.59
2023-04-04T17:17:02.799Z,98732.03
2023-04-04T17:19:31.843Z,98736.44
2023-04-04T17:21:58.844Z,98730.53
2023-04-04T17:24:27.471Z,98723.13
2023-04-04T17:26:56.986Z,98728.28
2023-04-04T17:29:26.988Z,98724.56
2023-04-04T17:31:55.721Z,98728.47
2023-04-04T17:34:23.166Z,98725.16
2023-04-04T17:36:51.411Z,98725.75
2023-04-04T17:39:18.648Z,98723.91
2023-04-04T17:41:48.967Z,98718.84
2023-04-04T17:44:20.520Z,98721.72
2023-04-04T17:46:47.229Z,98718.28
2023-04-04T17:49:20.312Z,98729.00
2023-04-04T17:51:48.984Z,98728.97
2023-04-04T17:54:16.484Z,98720.56
2023-04-04T17:56:47.387Z,98726.41
2023-04-04T17:59:15.067Z,98725.34
2023-04-04T18:01:42.244Z,98730.63
2023-04-04T18:04:09.691Z,98733.06
2023-04-04T18:06:39.518Z,98729.22
2023-04-04T18:09:07.845Z,98733.03
2023-04-04T18:11:36.949Z,98725.44
2023-04-04T18:14:04.283Z,98728.44
2023-04-04T18:16:39.142Z,98728.34
2023-04-04T18:19:07.586Z,98739.09
2023-04-04T18:21:34.256Z,98736.59
2023-04-04T18:24:00.971Z,98739.97
2023-04-04T18:26:27.943Z,98737.94
2023-04-04T18:28:54.597Z,98731.59
2023-04-04T18:31:21.705Z,98729.06
2023-04-04T18:33:49.970Z,98739.16
2023-04-04T18:36:16.998Z,98738.25
2023-04-04T18:38:43.950Z,98737.50
2023-04-04T18:41:11.024Z,98748.41
2023-04-04T18:43:37.867Z,98740.47
2023-04-04T18:46:05.746Z,98737.06
2023-04-04T18:48:33.684Z,98743.56
2023-04-04T18:51:01.663Z,98732.59
2023-04-04T18:53:31.321Z,98742.13
2023-04-04T18:55:58.862Z,98740.13
2023-04-04T18:58:26.721Z,98747.06
2023-04-04T19:00:55.785Z,98741.09
2023-04-04T19:03:22.878Z,98737.56
2023-04-04T19:05:50.095Z,98737.22
2023-04-04T19:08:18.390Z,98737.09
2023-04-04T19:10:50.983Z,98736.88
2023-04-04T19:13:18.298Z,98735.88
2023-04-04T19:15:45.044Z,98734.66
2023-04-04T19:18:12.026Z,98730.84
2023-04-04T19:20:42.103Z,98727.81
2023-04-04T19:23:09.204Z,98730.88
2023-04-04T19:25:35.925Z,98731.31
2023-04-04T19:28:02.830Z,98725.13
2023-04-04T19:30:47.412Z,98719.44
2023-04-04T19:33:17.188Z,98725.94
2023-04-04T19:35:52.007Z,98722.03
2023-04-04T19:38:23.052Z,98721.78
2023-04-04T19:41:13.206Z,98719.09
2023-04-04T19:43:42.295Z,98726.38
2023-04-04T19:46:14.035Z,98715.97
2023-04-04T19:48:49.260Z,98713.16
2023-04-04T19:51:16.759Z,98714.28
2023-04-04T19:53:45.173Z,98712.56
2023-04-04T19:56:13.802Z,98709.31
2023-04-04T19:58:40.804Z,98710.22
2023-04-04T20:01:09.446Z,98705.28
2023-04-04T20:03:40.936Z,98701.47
2023-04-04T20:06:27.808Z,98714.13
2023-04-04T20:08:59.577Z,98715.94
2023-04-04T20:11:30.328Z,98718.47
2023-04-04T20:13:58.909Z,98716.03
2023-04-04T20:16:26.601Z,98712.25
2023-04-04T20:18:53.656Z,98710.13
2023-04-04T20:21:27.305Z,98710.19
2023-04-04T20:23:55.204Z,98706.50
2023-04-04T20:26:40.601Z,98698.88
2023-04-04T20:29:10.010Z,98700.66
2023-04-04T20:31:43.864Z,98700.28
2023-04-04T20:34:30.568Z,98705.09
2023-04-04T20:36:57.389Z,98703.44
2023-04-04T20:40:17.098Z,98705.63
2023-04-04T20:42:43.811Z,98698.69
2023-04-04T20:45:10.441Z,98706.06
2023-04-04T20:47:46.937Z,98701.19
2023-04-04T20:50:16.840Z,98705.31
2023-04-04T20:52:50.595Z,98698.03
2023-04-04T20:55:18.224Z,98701.66
2023-04-04T20:57:48.611Z,98697.19
2023-04-04T21:00:31.358Z,98692.13
2023-04-04T21:03:00.943Z,98686.22
2023-04-04T21:05:29.110Z,98693.16
2023-04-04T21:07:56.490Z,98694.97
2023-04-04T21:10:24.709Z,98688.25
2023-04-04T21:12:52.368Z,98694.78
2023-04-04T21:15:26.539Z,98698.03
2023-04-04T21:17:53.756Z,98686.22
2023-04-04T21:20:59.649Z,98679.09
2023-04-04T21:23:29.188Z,98673.03
2023-04-04T21:26:08.572Z,98667.91
2023-04-04T21:28:38.449Z,98675.19
2023-04-04T21:31:14.425Z,98668.47
2023-04-04T21:33:48.974Z,98680.66
2023-04-04T21:36:28.984Z,98680.53
2023-04-04T21:39:01.108Z,98675.63
2023-04-04T21:41:29.907Z,98676.81
2023-04-04T21:44:01.929Z,98675.53
2023-04-04T21:46:32.181Z,98678.88
2023-04-04T21:49:00.144Z,98673.31
2023-04-04T21:51:27.552Z,98671.75
2023-04-04T21:53:54.749Z,98669.56
2023-04-04T21:56:22.752Z,98681.44
2023-04-04T21:58:50.005Z,98679.75
2023-04-04T22:01:16.885Z,98685.00
2023-04-04T22:03:43.571Z,98684.34
2023-04-04T22:06:12.391Z,98685.22
2023-04-04T22:08:39.064Z,98686.53
2023-04-04T22:11:06.020Z,98686.66
2023-04-04T22:13:43.110Z,98693.19
2023-04-04T22:16:16.184Z,98687.78
2023-04-04T22:18:47.951Z,98675.19
2023-04-04T22:21:15.702Z,98661.31
2023-04-04T22:23:42.941Z,98658.31
2023-04-04T22:26:14.213Z,98659.28
2023-04-04T22:28:42.333Z,98654.16
2023-04-04T22:31:09.402Z,98657.41
2023-04-04T22:33:36.042Z,98659.34
2023-04-04T22:36:05.583Z,98663.75
2023-04-04T22:38:32.280Z,98664.13
2023-04-04T22:40:58.988Z,98655.94
2023-04-04T22:43:26.144Z,98654.06
2023-04-04T22:45:53.606Z,98634.75
2023-04-04T22:48:23.221Z,98639.81
2023-04-04T22:50:55.896Z,98635.84
2023-04-04T22:53:26.504Z,98634.94
2023-04-04T22:55:54.311Z,98628.97
2023-04-04T22:58:21.904Z,98628.84
2023-04-04T23:00:49.090Z,98631.59
2023-04-04T23:03:16.181Z,98644.59
2023-04-04T23:05:43.458Z,98636.38
2023-04-04T23:08:11.317Z,98621.53
2023-04-04T23:10:38.364Z,98626.75
2023-04-04T23:13:05.425Z,98623.81
2023-04-04T23:15:35.879Z,98619.13
2023-04-04T23:18:02.756Z,98612.53
2023-04-04T23:20:32.310Z,98597.00
2023-04-04T23:22:59.358Z,98603.31
2023-04-04T23:25:26.597Z,98591.53
2023-04-04T23:27:54.085Z,98594.69
2023-04-04T23:30:23.244Z,98586.84
2023-04-04T23:32:50.691Z,98582.19
2023-04-04T23:35:17.698Z,98582.78
2023-04-04T23:37:44.702Z,98572.72
2023-04-04T23:40:12.180Z,98580.03
2023-04-04T23:42:38.999Z,98567.84
2023-04-04T23:45:06.415Z,98570.06
2023-04-04T23:47:33.267Z,98560.44
2023-04-04T23:50:00.325Z,98557.50
2023-04-04T23:52:29.560Z,98553.38
2023-04-04T23:54:56.213Z,98551.81
2023-04-04T23:57:23.073Z,98557.34
2023-04-04T23:59:49.755Z,98553.69
